sensor_id;sensor_type;location;lat;lon;timestamp;P1;durP1;ratioP1;P2;durP2;ratioP2
43706;SDS011;61348;53.392;-6.248;2023-03-19T00:00:27;13.50;;;4.63;;
43706;SDS011;61348;53.392;-6.248;2023-03-19T00:02:54;13.43;;;4.65;;
43706;SDS011;61348;53.392;-6.248;2023-03-19T00:05:21;13.75;;;3.63;;
43706;SDS011;61348;53.392;-6.248;2023-03-19T00:07:48;15.50;;;2.92;;
43706;SDS011;61348;53.392;-6.248;2023-03-19T00:10:15;13.85;;;3.65;;
43706;SDS011;61348;53.392;-6.248;2023-03-19T00:12:41;13.07;;;3.22;;
43706;SDS011;61348;53.392;-6.248;2023-03-19T00:15:08;15.27;;;3.60;;
43706;SDS011;61348;53.392;-6.248;2023-03-19T00:17:40;14.27;;;3.72;;
43706;SDS011;61348;53.392;-6.248;2023-03-19T00:20:07;17.02;;;4.40;;
43706;SDS011;61348;53.392;-6.248;2023-03-19T00:22:37;19.83;;;4.18;;
43706;SDS011;61348;53.392;-6.248;2023-03-19T00:25:05;12.25;;;3.33;;
43706;SDS011;61348;53.392;-6.248;2023-03-19T00:27:33;13.02;;;4.25;;
43706;SDS011;61348;53.392;-6.248;2023-03-19T00:30:01;10.05;;;3.20;;
43706;SDS011;61348;53.392;-6.248;2023-03-19T00:32:28;13.60;;;2.83;;
43706;SDS011;61348;53.392;-6.248;2023-03-19T00:34:55;18.42;;;5.05;;
43706;SDS011;61348;53.392;-6.248;2023-03-19T00:37:22;20.52;;;4.35;;
43706;SDS011;61348;53.392;-6.248;2023-03-19T00:39:48;13.98;;;3.00;;
43706;SDS011;61348;53.392;-6.248;2023-03-19T00:42:15;18.10;;;2.95;;
43706;SDS011;61348;53.392;-6.248;2023-03-19T00:44:42;12.40;;;2.83;;
43706;SDS011;61348;53.392;-6.248;2023-03-19T00:47:08;13.93;;;2.70;;
43706;SDS011;61348;53.392;-6.248;2023-03-19T00:49:35;13.68;;;2.70;;
43706;SDS011;61348;53.392;-6.248;2023-03-19T00:52:02;13.10;;;2.90;;
43706;SDS011;61348;53.392;-6.248;2023-03-19T00:54:29;10.27;;;2.33;;
43706;SDS011;61348;53.392;-6.248;2023-03-19T00:56:57;16.70;;;3.13;;
43706;SDS011;61348;53.392;-6.248;2023-03-19T00:59:24;8.82;;;3.10;;
43706;SDS011;61348;53.392;-6.248;2023-03-19T01:01:51;13.40;;;3.00;;
43706;SDS011;61348;53.392;-6.248;2023-03-19T01:04:18;9.75;;;2.90;;
43706;SDS011;61348;53.392;-6.248;2023-03-19T01:06:45;11.38;;;5.00;;
43706;SDS011;61348;53.392;-6.248;2023-03-19T01:09:11;13.80;;;2.90;;
43706;SDS011;61348;53.392;-6.248;2023-03-19T01:11:38;13.65;;;2.97;;
43706;SDS011;61348;53.392;-6.248;2023-03-19T01:14:05;17.40;;;6.13;;
43706;SDS011;61348;53.392;-6.248;2023-03-19T01:16:32;16.15;;;2.90;;
43706;SDS011;61348;53.392;-6.248;2023-03-19T01:19:00;15.73;;;4.03;;
43706;SDS011;61348;53.392;-6.248;2023-03-19T01:21:28;15.48;;;2.28;;
43706;SDS011;61348;53.392;-6.248;2023-03-19T01:23:56;16.63;;;3.50;;
43706;SDS011;61348;53.392;-6.248;2023-03-19T01:26:23;13.32;;;3.30;;
43706;SDS011;61348;53.392;-6.248;2023-03-19T01:28:50;15.13;;;3.78;;
43706;SDS011;61348;53.392;-6.248;2023-03-19T01:31:17;13.98;;;3.20;;
43706;SDS011;61348;53.392;-6.248;2023-03-19T01:33:44;13.35;;;2.58;;
43706;SDS011;61348;53.392;-6.248;2023-03-19T01:36:11;11.43;;;3.37;;
43706;SDS011;61348;53.392;-6.248;2023-03-19T01:38:38;9.18;;;3.28;;
43706;SDS011;61348;53.392;-6.248;2023-03-19T01:41:05;17.00;;;4.65;;
43706;SDS011;61348;53.392;-6.248;2023-03-19T01:43:32;11.82;;;2.97;;
43706;SDS011;61348;53.392;-6.248;2023-03-19T01:46:06;12.38;;;2.88;;
43706;SDS011;61348;53.392;-6.248;2023-03-19T01:51:09;8.40;;;2.53;;
43706;SDS011;61348;53.392;-6.248;2023-03-19T01:53:39;18.55;;;2.70;;
43706;SDS011;61348;53.392;-6.248;2023-03-19T01:56:11;12.52;;;3.17;;
43706;SDS011;61348;53.392;-6.248;2023-03-19T01:58:43;17.33;;;3.03;;
43706;SDS011;61348;53.392;-6.248;2023-03-19T02:01:13;8.10;;;2.27;;
43706;SDS011;61348;53.392;-6.248;2023-03-19T02:03:40;11.32;;;2.55;;
43706;SDS011;61348;53.392;-6.248;2023-03-19T02:06:08;17.17;;;3.53;;
43706;SDS011;61348;53.392;-6.248;2023-03-19T02:08:37;13.00;;;2.95;;
43706;SDS011;61348;53.392;-6.248;2023-03-19T02:11:06;12.07;;;5.35;;
43706;SDS011;61348;53.392;-6.248;2023-03-19T02:13:33;14.30;;;3.63;;
43706;SDS011;61348;53.392;-6.248;2023-03-19T02:16:00;14.98;;;2.95;;
43706;SDS011;61348;53.392;-6.248;2023-03-19T02:18:27;16.25;;;3.72;;
43706;SDS011;61348;53.392;-6.248;2023-03-19T02:26:36;11.10;;;2.60;;
43706;SDS011;61348;53.392;-6.248;2023-03-19T02:29:03;8.13;;;2.63;;
43706;SDS011;61348;53.392;-6.248;2023-03-19T02:31:31;17.58;;;4.10;;
43706;SDS011;61348;53.392;-6.248;2023-03-19T02:33:58;19.88;;;3.08;;
43706;SDS011;61348;53.392;-6.248;2023-03-19T02:36:28;12.95;;;3.13;;
43706;SDS011;61348;53.392;-6.248;2023-03-19T02:39:03;12.20;;;3.22;;
43706;SDS011;61348;53.392;-6.248;2023-03-19T02:41:33;20.30;;;4.10;;
43706;SDS011;61348;53.392;-6.248;2023-03-19T02:44:05;8.38;;;3.67;;
43706;SDS011;61348;53.392;-6.248;2023-03-19T02:46:33;15.35;;;3.53;;
43706;SDS011;61348;53.392;-6.248;2023-03-19T02:48:59;13.88;;;3.88;;
43706;SDS011;61348;53.392;-6.248;2023-03-19T02:51:26;16.50;;;2.60;;
43706;SDS011;61348;53.392;-6.248;2023-03-19T02:53:53;11.93;;;2.75;;
43706;SDS011;61348;53.392;-6.248;2023-03-19T02:56:20;13.60;;;3.50;;
43706;SDS011;61348;53.392;-6.248;2023-03-19T02:58:47;15.70;;;3.10;;
43706;SDS011;61348;53.392;-6.248;2023-03-19T03:01:14;16.55;;;3.60;;
43706;SDS011;61348;53.392;-6.248;2023-03-19T03:03:41;7.10;;;3.00;;
43706;SDS011;61348;53.392;-6.248;2023-03-19T03:06:08;8.68;;;3.50;;
43706;SDS011;61348;53.392;-6.248;2023-03-19T03:08:34;14.50;;;3.35;;
43706;SDS011;61348;53.392;-6.248;2023-03-19T03:11:02;10.73;;;2.65;;
43706;SDS011;61348;53.392;-6.248;2023-03-19T03:13:28;21.42;;;4.90;;
43706;SDS011;61348;53.392;-6.248;2023-03-19T03:15:55;8.55;;;3.13;;
43706;SDS011;61348;53.392;-6.248;2023-03-19T03:18:22;11.20;;;2.58;;
43706;SDS011;61348;53.392;-6.248;2023-03-19T03:20:49;13.85;;;3.00;;
43706;SDS011;61348;53.392;-6.248;2023-03-19T03:23:15;12.20;;;2.65;;
43706;SDS011;61348;53.392;-6.248;2023-03-19T03:25:42;11.77;;;2.75;;
43706;SDS011;61348;53.392;-6.248;2023-03-19T03:28:09;11.70;;;3.55;;
43706;SDS011;61348;53.392;-6.248;2023-03-19T03:30:35;14.15;;;3.17;;
43706;SDS011;61348;53.392;-6.248;2023-03-19T03:33:03;14.77;;;3.40;;
43706;SDS011;61348;53.392;-6.248;2023-03-19T03:35:30;8.57;;;2.20;;
43706;SDS011;61348;53.392;-6.248;2023-03-19T03:37:57;8.93;;;2.22;;
43706;SDS011;61348;53.392;-6.248;2023-03-19T03:40:24;17.00;;;3.58;;
43706;SDS011;61348;53.392;-6.248;2023-03-19T03:42:51;6.45;;;2.17;;
43706;SDS011;61348;53.392;-6.248;2023-03-19T03:45:17;15.15;;;2.92;;
43706;SDS011;61348;53.392;-6.248;2023-03-19T03:47:44;9.75;;;2.25;;
43706;SDS011;61348;53.392;-6.248;2023-03-19T03:50:11;8.80;;;3.00;;
43706;SDS011;61348;53.392;-6.248;2023-03-19T03:52:39;10.57;;;2.28;;
43706;SDS011;61348;53.392;-6.248;2023-03-19T03:55:06;8.20;;;2.25;;
43706;SDS011;61348;53.392;-6.248;2023-03-19T03:57:34;7.80;;;2.20;;
43706;SDS011;61348;53.392;-6.248;2023-03-19T04:00:01;9.68;;;2.55;;
43706;SDS011;61348;53.392;-6.248;2023-03-19T04:02:27;10.63;;;2.25;;
43706;SDS011;61348;53.392;-6.248;2023-03-19T04:04:54;10.73;;;2.42;;
43706;SDS011;61348;53.392;-6.248;2023-03-19T04:07:21;11.55;;;2.70;;
43706;SDS011;61348;53.392;-6.248;2023-03-19T04:09:48;19.42;;;4.35;;
43706;SDS011;61348;53.392;-6.248;2023-03-19T04:12:16;8.90;;;2.00;;
43706;SDS011;61348;53.392;-6.248;2023-03-19T04:14:43;12.95;;;4.78;;
43706;SDS011;61348;53.392;-6.248;2023-03-19T04:17:10;11.20;;;2.33;;
43706;SDS011;61348;53.392;-6.248;2023-03-19T04:19:36;6.65;;;2.97;;
43706;SDS011;61348;53.392;-6.248;2023-03-19T04:22:03;13.50;;;4.68;;
43706;SDS011;61348;53.392;-6.248;2023-03-19T04:24:30;12.82;;;2.88;;
43706;SDS011;61348;53.392;-6.248;2023-03-19T04:26:57;11.30;;;2.60;;
43706;SDS011;61348;53.392;-6.248;2023-03-19T04:29:24;12.30;;;2.35;;
43706;SDS011;61348;53.392;-6.248;2023-03-19T04:31:51;16.92;;;2.78;;
43706;SDS011;61348;53.392;-6.248;2023-03-19T04:34:18;11.82;;;2.97;;
43706;SDS011;61348;53.392;-6.248;2023-03-19T04:36:44;13.98;;;2.88;;
43706;SDS011;61348;53.392;-6.248;2023-03-19T04:39:11;6.30;;;2.13;;
43706;SDS011;61348;53.392;-6.248;2023-03-19T04:41:38;12.88;;;2.90;;
43706;SDS011;61348;53.392;-6.248;2023-03-19T04:44:05;12.30;;;2.92;;
43706;SDS011;61348;53.392;-6.248;2023-03-19T04:46:32;9.57;;;3.55;;
43706;SDS011;61348;53.392;-6.248;2023-03-19T04:48:59;10.80;;;2.25;;
43706;SDS011;61348;53.392;-6.248;2023-03-19T04:51:26;9.68;;;3.60;;
43706;SDS011;61348;53.392;-6.248;2023-03-19T04:53:53;14.77;;;2.70;;
43706;SDS011;61348;53.392;-6.248;2023-03-19T04:56:20;11.30;;;2.60;;
43706;SDS011;61348;53.392;-6.248;2023-03-19T04:58:47;8.35;;;2.17;;
43706;SDS011;61348;53.392;-6.248;2023-03-19T05:01:13;12.18;;;2.55;;
43706;SDS011;61348;53.392;-6.248;2023-03-19T05:03:40;16.90;;;2.47;;
43706;SDS011;61348;53.392;-6.248;2023-03-19T05:06:07;6.13;;;1.55;;
43706;SDS011;61348;53.392;-6.248;2023-03-19T05:08:34;11.50;;;3.10;;
43706;SDS011;61348;53.392;-6.248;2023-03-19T05:11:01;15.05;;;4.43;;
43706;SDS011;61348;53.392;-6.248;2023-03-19T05:13:28;10.77;;;2.47;;
43706;SDS011;61348;53.392;-6.248;2023-03-19T05:15:55;5.63;;;1.65;;
43706;SDS011;61348;53.392;-6.248;2023-03-19T05:18:22;12.48;;;1.58;;
43706;SDS011;61348;53.392;-6.248;2023-03-19T05:20:49;9.30;;;2.55;;
43706;SDS011;61348;53.392;-6.248;2023-03-19T05:23:15;11.60;;;3.33;;
43706;SDS011;61348;53.392;-6.248;2023-03-19T05:25:43;12.02;;;2.47;;
43706;SDS011;61348;53.392;-6.248;2023-03-19T05:28:10;13.40;;;2.35;;
43706;SDS011;61348;53.392;-6.248;2023-03-19T05:30:37;11.10;;;2.30;;
43706;SDS011;61348;53.392;-6.248;2023-03-19T05:33:04;12.60;;;3.05;;
43706;SDS011;61348;53.392;-6.248;2023-03-19T05:35:31;16.83;;;2.97;;
43706;SDS011;61348;53.392;-6.248;2023-03-19T05:37:58;10.05;;;2.40;;
43706;SDS011;61348;53.392;-6.248;2023-03-19T05:40:26;14.43;;;3.42;;
43706;SDS011;61348;53.392;-6.248;2023-03-19T05:42:53;8.48;;;3.00;;
43706;SDS011;61348;53.392;-6.248;2023-03-19T05:45:20;11.18;;;2.33;;
43706;SDS011;61348;53.392;-6.248;2023-03-19T05:47:47;11.70;;;2.13;;
43706;SDS011;61348;53.392;-6.248;2023-03-19T05:50:16;9.18;;;1.95;;
43706;SDS011;61348;53.392;-6.248;2023-03-19T05:52:43;21.05;;;2.58;;
43706;SDS011;61348;53.392;-6.248;2023-03-19T05:55:10;11.05;;;1.63;;
43706;SDS011;61348;53.392;-6.248;2023-03-19T05:57:37;5.22;;;1.95;;
43706;SDS011;61348;53.392;-6.248;2023-03-19T06:00:05;4.43;;;1.77;;
43706;SDS011;61348;53.392;-6.248;2023-03-19T06:02:33;12.48;;;1.88;;
43706;SDS011;61348;53.392;-6.248;2023-03-19T06:05:01;10.07;;;2.13;;
43706;SDS011;61348;53.392;-6.248;2023-03-19T06:07:27;14.63;;;3.88;;
43706;SDS011;61348;53.392;-6.248;2023-03-19T06:09:54;7.50;;;2.72;;
43706;SDS011;61348;53.392;-6.248;2023-03-19T06:12:21;8.02;;;2.50;;
43706;SDS011;61348;53.392;-6.248;2023-03-19T06:14:49;11.07;;;2.65;;
43706;SDS011;61348;53.392;-6.248;2023-03-19T06:17:15;5.25;;;2.65;;
43706;SDS011;61348;53.392;-6.248;2023-03-19T06:19:42;3.97;;;1.80;;
43706;SDS011;61348;53.392;-6.248;2023-03-19T06:22:09;9.57;;;2.00;;
43706;SDS011;61348;53.392;-6.248;2023-03-19T06:24:36;14.25;;;3.22;;
43706;SDS011;61348;53.392;-6.248;2023-03-19T06:27:04;10.07;;;2.65;;
43706;SDS011;61348;53.392;-6.248;2023-03-19T06:29:31;9.38;;;2.05;;
43706;SDS011;61348;53.392;-6.248;2023-03-19T06:31:57;6.80;;;2.47;;
43706;SDS011;61348;53.392;-6.248;2023-03-19T06:34:24;9.75;;;2.53;;
43706;SDS011;61348;53.392;-6.248;2023-03-19T06:36:51;22.60;;;4.30;;
43706;SDS011;61348;53.392;-6.248;2023-03-19T06:39:20;14.80;;;2.75;;
43706;SDS011;61348;53.392;-6.248;2023-03-19T06:41:46;15.88;;;2.70;;
43706;SDS011;61348;53.392;-6.248;2023-03-19T06:44:13;12.27;;;3.28;;
43706;SDS011;61348;53.392;-6.248;2023-03-19T06:46:40;7.18;;;2.42;;
43706;SDS011;61348;53.392;-6.248;2023-03-19T06:49:07;10.13;;;3.25;;
43706;SDS011;61348;53.392;-6.248;2023-03-19T06:51:34;11.02;;;2.65;;
43706;SDS011;61348;53.392;-6.248;2023-03-19T06:54:01;7.30;;;1.95;;
43706;SDS011;61348;53.392;-6.248;2023-03-19T06:56:28;19.50;;;3.00;;
43706;SDS011;61348;53.392;-6.248;2023-03-19T06:58:55;9.10;;;2.40;;
43706;SDS011;61348;53.392;-6.248;2023-03-19T07:01:21;12.40;;;2.30;;
43706;SDS011;61348;53.392;-6.248;2023-03-19T07:03:49;5.05;;;2.28;;
43706;SDS011;61348;53.392;-6.248;2023-03-19T07:06:16;7.43;;;1.85;;
43706;SDS011;61348;53.392;-6.248;2023-03-19T07:08:43;14.50;;;3.53;;
43706;SDS011;61348;53.392;-6.248;2023-03-19T07:11:13;5.68;;;2.42;;
43706;SDS011;61348;53.392;-6.248;2023-03-19T07:13:40;9.65;;;2.42;;
43706;SDS011;61348;53.392;-6.248;2023-03-19T07:16:07;8.55;;;1.95;;
43706;SDS011;61348;53.392;-6.248;2023-03-19T07:18:34;7.32;;;2.00;;
43706;SDS011;61348;53.392;-6.248;2023-03-19T07:21:01;11.80;;;3.15;;
43706;SDS011;61348;53.392;-6.248;2023-03-19T07:23:28;9.45;;;3.15;;
43706;SDS011;61348;53.392;-6.248;2023-03-19T07:25:54;14.95;;;2.45;;
43706;SDS011;61348;53.392;-6.248;2023-03-19T07:28:21;9.85;;;2.38;;
43706;SDS011;61348;53.392;-6.248;2023-03-19T07:30:50;21.15;;;3.88;;
43706;SDS011;61348;53.392;-6.248;2023-03-19T07:33:18;10.70;;;1.83;;
43706;SDS011;61348;53.392;-6.248;2023-03-19T07:35:46;16.20;;;2.53;;
43706;SDS011;61348;53.392;-6.248;2023-03-19T07:38:13;11.68;;;2.47;;
43706;SDS011;61348;53.392;-6.248;2023-03-19T07:40:40;11.57;;;2.30;;
43706;SDS011;61348;53.392;-6.248;2023-03-19T07:43:24;9.27;;;2.03;;
43706;SDS011;61348;53.392;-6.248;2023-03-19T07:45:51;11.32;;;1.95;;
43706;SDS011;61348;53.392;-6.248;2023-03-19T07:48:18;6.32;;;1.85;;
43706;SDS011;61348;53.392;-6.248;2023-03-19T07:50:45;9.50;;;2.17;;
43706;SDS011;61348;53.392;-6.248;2023-03-19T07:53:13;15.02;;;2.78;;
43706;SDS011;61348;53.392;-6.248;2023-03-19T07:55:39;5.10;;;2.17;;
43706;SDS011;61348;53.392;-6.248;2023-03-19T07:58:06;10.77;;;1.75;;
43706;SDS011;61348;53.392;-6.248;2023-03-19T08:00:33;10.90;;;2.33;;
43706;SDS011;61348;53.392;-6.248;2023-03-19T08:03:00;5.57;;;2.00;;
43706;SDS011;61348;53.392;-6.248;2023-03-19T08:05:26;14.27;;;2.92;;
43706;SDS011;61348;53.392;-6.248;2023-03-19T08:07:53;8.13;;;2.10;;
43706;SDS011;61348;53.392;-6.248;2023-03-19T08:10:20;11.05;;;1.67;;
43706;SDS011;61348;53.392;-6.248;2023-03-19T08:12:47;14.25;;;2.60;;
43706;SDS011;61348;53.392;-6.248;2023-03-19T08:15:14;19.52;;;3.60;;
43706;SDS011;61348;53.392;-6.248;2023-03-19T08:17:41;15.40;;;3.67;;
43706;SDS011;61348;53.392;-6.248;2023-03-19T08:20:11;9.45;;;1.67;;
43706;SDS011;61348;53.392;-6.248;2023-03-19T08:22:42;5.40;;;2.30;;
43706;SDS011;61348;53.392;-6.248;2023-03-19T08:25:09;10.88;;;1.75;;
43706;SDS011;61348;53.392;-6.248;2023-03-19T08:27:36;7.60;;;2.10;;
43706;SDS011;61348;53.392;-6.248;2023-03-19T08:30:04;10.68;;;2.00;;
43706;SDS011;61348;53.392;-6.248;2023-03-19T08:32:32;12.18;;;2.17;;
43706;SDS011;61348;53.392;-6.248;2023-03-19T08:35:02;14.35;;;5.05;;
43706;SDS011;61348;53.392;-6.248;2023-03-19T08:37:29;13.77;;;2.85;;
43706;SDS011;61348;53.392;-6.248;2023-03-19T08:39:56;10.07;;;1.60;;
43706;SDS011;61348;53.392;-6.248;2023-03-19T08:42:23;8.50;;;2.13;;
43706;SDS011;61348;53.392;-6.248;2023-03-19T08:44:51;9.23;;;2.55;;
43706;SDS011;61348;53.392;-6.248;2023-03-19T08:47:17;9.63;;;2.33;;
43706;SDS011;61348;53.392;-6.248;2023-03-19T08:49:44;9.13;;;2.13;;
43706;SDS011;61348;53.392;-6.248;2023-03-19T08:52:11;16.33;;;1.83;;
43706;SDS011;61348;53.392;-6.248;2023-03-19T08:54:38;8.25;;;1.65;;
43706;SDS011;61348;53.392;-6.248;2023-03-19T08:57:05;10.55;;;1.63;;
43706;SDS011;61348;53.392;-6.248;2023-03-19T08:59:32;10.82;;;2.08;;
43706;SDS011;61348;53.392;-6.248;2023-03-19T09:02:00;6.93;;;1.67;;
43706;SDS011;61348;53.392;-6.248;2023-03-19T09:04:28;5.50;;;1.60;;
43706;SDS011;61348;53.392;-6.248;2023-03-19T09:06:56;7.35;;;2.15;;
43706;SDS011;61348;53.392;-6.248;2023-03-19T09:09:22;6.03;;;1.80;;
43706;SDS011;61348;53.392;-6.248;2023-03-19T09:11:50;8.40;;;1.75;;
43706;SDS011;61348;53.392;-6.248;2023-03-19T09:14:16;9.40;;;1.75;;
43706;SDS011;61348;53.392;-6.248;2023-03-19T09:16:45;9.30;;;2.15;;
43706;SDS011;61348;53.392;-6.248;2023-03-19T09:19:12;6.00;;;1.90;;
43706;SDS011;61348;53.392;-6.248;2023-03-19T09:21:39;6.93;;;1.55;;
43706;SDS011;61348;53.392;-6.248;2023-03-19T09:24:06;9.23;;;1.38;;
43706;SDS011;61348;53.392;-6.248;2023-03-19T09:26:33;8.40;;;1.73;;
43706;SDS011;61348;53.392;-6.248;2023-03-19T09:29:00;8.88;;;1.90;;
43706;SDS011;61348;53.392;-6.248;2023-03-19T09:31:27;10.18;;;2.20;;
43706;SDS011;61348;53.392;-6.248;2023-03-19T09:33:55;10.10;;;1.83;;
43706;SDS011;61348;53.392;-6.248;2023-03-19T09:36:21;8.07;;;1.38;;
43706;SDS011;61348;53.392;-6.248;2023-03-19T09:38:48;4.85;;;1.65;;
43706;SDS011;61348;53.392;-6.248;2023-03-19T09:43:58;8.18;;;1.38;;
43706;SDS011;61348;53.392;-6.248;2023-03-19T09:48:56;6.45;;;1.25;;
43706;SDS011;61348;53.392;-6.248;2023-03-19T09:51:31;10.00;;;1.92;;
43706;SDS011;61348;53.392;-6.248;2023-03-19T09:54:07;9.60;;;1.48;;
43706;SDS011;61348;53.392;-6.248;2023-03-19T09:56:47;7.90;;;1.30;;
43706;SDS011;61348;53.392;-6.248;2023-03-19T09:59:15;7.90;;;1.85;;
43706;SDS011;61348;53.392;-6.248;2023-03-19T10:01:44;21.05;;;2.53;;
43706;SDS011;61348;53.392;-6.248;2023-03-19T10:04:25;16.02;;;2.03;;
43706;SDS011;61348;53.392;-6.248;2023-03-19T10:15:51;7.90;;;2.08;;
43706;SDS011;61348;53.392;-6.248;2023-03-19T10:26:31;11.40;;;2.95;;
43706;SDS011;61348;53.392;-6.248;2023-03-19T10:36:49;6.47;;;1.80;;
43706;SDS011;61348;53.392;-6.248;2023-03-19T10:39:25;7.25;;;1.30;;
43706;SDS011;61348;53.392;-6.248;2023-03-19T10:41:59;10.35;;;2.40;;
43706;SDS011;61348;53.392;-6.248;2023-03-19T10:44:34;5.95;;;1.40;;
43706;SDS011;61348;53.392;-6.248;2023-03-19T10:47:11;3.38;;;1.75;;
43706;SDS011;61348;53.392;-6.248;2023-03-19T10:49:40;10.85;;;1.95;;
43706;SDS011;61348;53.392;-6.248;2023-03-19T10:52:29;10.20;;;1.80;;
43706;SDS011;61348;53.392;-6.248;2023-03-19T10:55:01;4.53;;;1.42;;
43706;SDS011;61348;53.392;-6.248;2023-03-19T11:00:21;10.13;;;1.55;;
43706;SDS011;61348;53.392;-6.248;2023-03-19T11:02:53;15.82;;;2.17;;
43706;SDS011;61348;53.392;-6.248;2023-03-19T11:05:22;7.25;;;1.35;;
43706;SDS011;61348;53.392;-6.248;2023-03-19T11:08:02;9.45;;;2.10;;
43706;SDS011;61348;53.392;-6.248;2023-03-19T11:10:32;4.32;;;1.40;;
43706;SDS011;61348;53.392;-6.248;2023-03-19T11:13:21;8.85;;;1.50;;
43706;SDS011;61348;53.392;-6.248;2023-03-19T11:15:50;9.65;;;1.52;;
43706;SDS011;61348;53.392;-6.248;2023-03-19T11:18:22;21.65;;;2.78;;
43706;SDS011;61348;53.392;-6.248;2023-03-19T11:21:06;10.18;;;1.95;;
43706;SDS011;61348;53.392;-6.248;2023-03-19T11:23:46;5.45;;;1.10;;
43706;SDS011;61348;53.392;-6.248;2023-03-19T11:26:18;7.03;;;1.08;;
43706;SDS011;61348;53.392;-6.248;2023-03-19T11:28:50;12.02;;;3.15;;
43706;SDS011;61348;53.392;-6.248;2023-03-19T11:31:19;5.03;;;1.73;;
43706;SDS011;61348;53.392;-6.248;2023-03-19T11:39:26;10.55;;;1.90;;
43706;SDS011;61348;53.392;-6.248;2023-03-19T11:45:02;10.85;;;1.38;;
43706;SDS011;61348;53.392;-6.248;2023-03-19T11:56:43;13.50;;;2.17;;
43706;SDS011;61348;53.392;-6.248;2023-03-19T11:59:18;9.02;;;1.98;;
43706;SDS011;61348;53.392;-6.248;2023-03-19T12:04:47;6.18;;;1.90;;
43706;SDS011;61348;53.392;-6.248;2023-03-19T12:11:09;10.43;;;2.92;;
43706;SDS011;61348;53.392;-6.248;2023-03-19T12:13:36;7.95;;;1.35;;
43706;SDS011;61348;53.392;-6.248;2023-03-19T12:17:09;8.23;;;1.73;;
43706;SDS011;61348;53.392;-6.248;2023-03-19T12:28:33;4.45;;;2.38;;
43706;SDS011;61348;53.392;-6.248;2023-03-19T12:33:59;7.45;;;2.05;;
43706;SDS011;61348;53.392;-6.248;2023-03-19T12:36:45;7.65;;;1.17;;
43706;SDS011;61348;53.392;-6.248;2023-03-19T12:39:19;4.10;;;0.90;;
43706;SDS011;61348;53.392;-6.248;2023-03-19T12:41:52;7.43;;;2.03;;
43706;SDS011;61348;53.392;-6.248;2023-03-19T12:44:24;9.55;;;1.77;;
43706;SDS011;61348;53.392;-6.248;2023-03-19T12:47:03;5.20;;;2.35;;
43706;SDS011;61348;53.392;-6.248;2023-03-19T12:49:40;5.47;;;1.30;;
43706;SDS011;61348;53.392;-6.248;2023-03-19T12:52:18;3.00;;;1.00;;
43706;SDS011;61348;53.392;-6.248;2023-03-19T12:54:58;6.32;;;1.02;;
43706;SDS011;61348;53.392;-6.248;2023-03-19T12:57:42;10.13;;;2.25;;
43706;SDS011;61348;53.392;-6.248;2023-03-19T13:03:16;4.55;;;0.95;;
43706;SDS011;61348;53.392;-6.248;2023-03-19T13:11:25;9.25;;;1.70;;
43706;SDS011;61348;53.392;-6.248;2023-03-19T13:14:13;4.78;;;1.13;;
43706;SDS011;61348;53.392;-6.248;2023-03-19T13:21:58;7.63;;;1.88;;
43706;SDS011;61348;53.392;-6.248;2023-03-19T13:24:34;4.00;;;1.60;;
43706;SDS011;61348;53.392;-6.248;2023-03-19T13:27:05;4.22;;;1.10;;
43706;SDS011;61348;53.392;-6.248;2023-03-19T13:29:33;10.52;;;2.28;;
43706;SDS011;61348;53.392;-6.248;2023-03-19T13:32:06;8.88;;;1.48;;
43706;SDS011;61348;53.392;-6.248;2023-03-19T13:34:47;6.75;;;1.75;;
43706;SDS011;61348;53.392;-6.248;2023-03-19T13:37:15;9.02;;;1.30;;
43706;SDS011;61348;53.392;-6.248;2023-03-19T13:39:44;2.47;;;1.00;;
43706;SDS011;61348;53.392;-6.248;2023-03-19T13:47:57;5.15;;;1.65;;
43706;SDS011;61348;53.392;-6.248;2023-03-19T13:55:58;17.13;;;2.15;;
43706;SDS011;61348;53.392;-6.248;2023-03-19T13:58:26;9.40;;;3.15;;
43706;SDS011;61348;53.392;-6.248;2023-03-19T14:03:55;9.85;;;1.60;;
43706;SDS011;61348;53.392;-6.248;2023-03-19T14:06:43;5.78;;;1.60;;
43706;SDS011;61348;53.392;-6.248;2023-03-19T14:09:28;7.95;;;2.30;;
43706;SDS011;61348;53.392;-6.248;2023-03-19T14:14:39;12.82;;;2.50;;
43706;SDS011;61348;53.392;-6.248;2023-03-19T14:17:31;9.63;;;1.92;;
43706;SDS011;61348;53.392;-6.248;2023-03-19T14:20:03;9.85;;;2.40;;
43706;SDS011;61348;53.392;-6.248;2023-03-19T14:27:45;8.20;;;1.80;;
43706;SDS011;61348;53.392;-6.248;2023-03-19T14:30:28;13.82;;;2.38;;
43706;SDS011;61348;53.392;-6.248;2023-03-19T14:33:00;4.43;;;2.00;;
43706;SDS011;61348;53.392;-6.248;2023-03-19T14:38:01;8.50;;;2.05;;
43706;SDS011;61348;53.392;-6.248;2023-03-19T14:40:50;9.52;;;2.72;;
43706;SDS011;61348;53.392;-6.248;2023-03-19T14:57:29;6.88;;;2.03;;
43706;SDS011;61348;53.392;-6.248;2023-03-19T14:59:58;6.28;;;1.70;;
43706;SDS011;61348;53.392;-6.248;2023-03-19T15:04:52;9.02;;;2.13;;
43706;SDS011;61348;53.392;-6.248;2023-03-19T15:07:21;10.63;;;2.20;;
43706;SDS011;61348;53.392;-6.248;2023-03-19T15:09:54;7.65;;;1.52;;
43706;SDS011;61348;53.392;-6.248;2023-03-19T15:12:36;9.05;;;3.42;;
43706;SDS011;61348;53.392;-6.248;2023-03-19T15:15:10;5.72;;;1.35;;
43706;SDS011;61348;53.392;-6.248;2023-03-19T15:17:46;8.05;;;2.50;;
43706;SDS011;61348;53.392;-6.248;2023-03-19T15:20:34;9.68;;;3.10;;
43706;SDS011;61348;53.392;-6.248;2023-03-19T15:23:09;11.07;;;2.80;;
43706;SDS011;61348;53.392;-6.248;2023-03-19T15:25:55;5.47;;;2.15;;
43706;SDS011;61348;53.392;-6.248;2023-03-19T15:28:33;5.45;;;2.47;;
43706;SDS011;61348;53.392;-6.248;2023-03-19T15:31:11;7.03;;;2.45;;
43706;SDS011;61348;53.392;-6.248;2023-03-19T15:33:56;4.53;;;1.98;;
43706;SDS011;61348;53.392;-6.248;2023-03-19T15:36:25;6.97;;;2.47;;
43706;SDS011;61348;53.392;-6.248;2023-03-19T15:38:59;12.30;;;2.40;;
43706;SDS011;61348;53.392;-6.248;2023-03-19T15:41:31;8.15;;;2.78;;
43706;SDS011;61348;53.392;-6.248;2023-03-19T15:44:00;5.82;;;3.83;;
43706;SDS011;61348;53.392;-6.248;2023-03-19T15:46:33;11.27;;;3.25;;
43706;SDS011;61348;53.392;-6.248;2023-03-19T15:49:09;11.02;;;3.15;;
43706;SDS011;61348;53.392;-6.248;2023-03-19T15:51:39;11.57;;;2.53;;
43706;SDS011;61348;53.392;-6.248;2023-03-19T15:54:07;6.97;;;2.30;;
43706;SDS011;61348;53.392;-6.248;2023-03-19T15:56:34;10.10;;;2.33;;
43706;SDS011;61348;53.392;-6.248;2023-03-19T15:59:01;7.43;;;1.90;;
43706;SDS011;61348;53.392;-6.248;2023-03-19T16:01:30;7.03;;;1.75;;
43706;SDS011;61348;53.392;-6.248;2023-03-19T16:03:59;9.63;;;3.25;;
43706;SDS011;61348;53.392;-6.248;2023-03-19T16:06:34;9.35;;;2.97;;
43706;SDS011;61348;53.392;-6.248;2023-03-19T16:09:45;5.60;;;2.97;;
43706;SDS011;61348;53.392;-6.248;2023-03-19T16:12:02;11.40;;;3.45;;
43706;SDS011;61348;53.392;-6.248;2023-03-19T16:17:12;11.00;;;3.67;;
43706;SDS011;61348;53.392;-6.248;2023-03-19T16:19:50;12.52;;;3.30;;
43706;SDS011;61348;53.392;-6.248;2023-03-19T16:22:27;15.85;;;3.67;;
43706;SDS011;61348;53.392;-6.248;2023-03-19T16:24:55;10.93;;;3.30;;
43706;SDS011;61348;53.392;-6.248;2023-03-19T16:27:34;10.02;;;3.92;;
43706;SDS011;61348;53.392;-6.248;2023-03-19T16:30:12;13.55;;;7.07;;
43706;SDS011;61348;53.392;-6.248;2023-03-19T16:32:44;38.85;;;15.10;;
43706;SDS011;61348;53.392;-6.248;2023-03-19T16:35:11;142.73;;;51.45;;
43706;SDS011;61348;53.392;-6.248;2023-03-19T16:37:43;123.70;;;48.33;;
43706;SDS011;61348;53.392;-6.248;2023-03-19T16:45:19;32.15;;;18.30;;
43706;SDS011;61348;53.392;-6.248;2023-03-19T16:47:51;46.72;;;22.38;;
43706;SDS011;61348;53.392;-6.248;2023-03-19T16:50:27;21.75;;;11.77;;
43706;SDS011;61348;53.392;-6.248;2023-03-19T16:53:03;15.75;;;7.75;;
43706;SDS011;61348;53.392;-6.248;2023-03-19T16:55:36;22.02;;;9.23;;
43706;SDS011;61348;53.392;-6.248;2023-03-19T17:01:03;30.40;;;15.35;;
43706;SDS011;61348;53.392;-6.248;2023-03-19T17:03:31;20.83;;;13.10;;